createdAt,value
2022-10-23T00:01:46.584Z,101523.81
2022-10-23T00:04:15.584Z,101503.22
2022-10-23T00:06:43.396Z,101516.75
2022-10-23T00:09:12.921Z,101512.47
2022-10-23T00:11:40.217Z,101518.56
2022-10-23T00:14:09.578Z,101524.00
2022-10-23T00:16:36.586Z,101509.91
2022-10-23T00:19:03.748Z,101511.88
2022-10-23T00:21:30.571Z,101528.44
2022-10-23T00:23:57.423Z,101528.44
2022-10-23T00:26:24.377Z,101515.34
2022-10-23T00:28:52.710Z,101527.84
2022-10-23T00:31:22.813Z,101528.03
2022-10-23T00:33:50.384Z,101527.19
2022-10-23T00:36:20.198Z,101532.25
2022-10-23T00:38:47.758Z,101534.16
2022-10-23T00:41:18.120Z,101533.47
2022-10-23T00:44:00.478Z,101530.03
2022-10-23T00:46:29.951Z,101533.00
2022-10-23T00:48:57.926Z,101539.34
2022-10-23T00:51:27.949Z,101532.38
2022-10-23T00:54:06.776Z,101526.31
2022-10-23T00:56:46.817Z,101526.50
2022-10-23T00:59:13.784Z,101522.03
2022-10-23T01:01:42.281Z,101512.53
2022-10-23T01:04:10.182Z,101470.56
2022-10-23T01:06:43.488Z,101516.78
2022-10-23T01:09:17.910Z,101504.47
2022-10-23T01:11:51.052Z,101507.69
2022-10-23T01:14:26.508Z,101498.00
2022-10-23T01:16:59.267Z,101500.47
2022-10-23T01:19:43.099Z,101473.66
2022-10-23T01:22:28.050Z,101499.75
2022-10-23T01:24:59.685Z,101492.03
2022-10-23T01:27:33.015Z,101487.00
2022-10-23T01:30:06.559Z,101488.97
2022-10-23T01:32:44.649Z,101495.16
2022-10-23T01:35:15.502Z,101494.97
2022-10-23T01:37:46.016Z,101474.91
2022-10-23T01:40:21.485Z,101482.44
2022-10-23T01:42:55.061Z,101472.66
2022-10-23T01:45:32.655Z,101481.28
2022-10-23T01:48:02.127Z,101454.47
2022-10-23T01:50:30.860Z,101471.78
2022-10-23T01:53:03.516Z,101461.41
2022-10-23T01:55:32.583Z,101466.94
2022-10-23T01:58:07.439Z,101468.63
2022-10-23T02:00:43.133Z,101445.34
2022-10-23T02:03:11.904Z,101428.25
2022-10-23T02:05:39.469Z,101450.28
2022-10-23T02:08:07.120Z,101463.56
2022-10-23T02:10:41.696Z,101452.75
2022-10-23T02:13:16.608Z,101458.25
2022-10-23T02:15:49.238Z,101456.34
2022-10-23T02:18:30.594Z,101445.91
2022-10-23T02:21:00.772Z,101441.63
2022-10-23T02:23:32.304Z,101434.47
2022-10-23T02:26:04.854Z,101433.91
2022-10-23T02:28:39.564Z,101424.13
2022-10-23T02:31:13.306Z,101425.94
2022-10-23T02:33:41.151Z,101413.09
2022-10-23T02:36:09.005Z,101419.66
2022-10-23T02:38:38.413Z,101424.22
2022-10-23T02:41:16.570Z,101416.22
2022-10-23T02:43:55.047Z,101423.47
2022-10-23T02:46:28.919Z,101411.09
2022-10-23T02:49:05.953Z,101407.09
2022-10-23T02:51:41.451Z,101416.41
2022-10-23T02:54:16.740Z,101418.13
2022-10-23T02:56:51.083Z,101394.00
2022-10-23T02:59:25.760Z,101403.88
2022-10-23T03:01:58.464Z,101402.34
2022-10-23T03:04:28.127Z,101401.38
2022-10-23T03:06:55.845Z,101406.72
2022-10-23T03:09:22.845Z,101373.47
2022-10-23T03:11:49.766Z,101369.22
2022-10-23T03:14:16.608Z,101383.84
2022-10-23T03:16:46.286Z,101386.19
2022-10-23T03:19:13.383Z,101396.38
2022-10-23T03:21:41.139Z,101389.31
2022-10-23T03:24:09.004Z,101384.88
2022-10-23T03:26:41.040Z,101394.84
2022-10-23T03:29:07.985Z,101378.47
2022-10-23T03:31:41.289Z,101372.50
2022-10-23T03:34:11.509Z,101380.66
2022-10-23T03:36:40.702Z,101372.75
2022-10-23T03:39:08.911Z,101373.13
2022-10-23T03:41:35.707Z,101318.72
2022-10-23T03:46:34.575Z,101366.19
2022-10-23T03:49:01.533Z,101366.28
2022-10-23T03:51:30.201Z,101354.44
2022-10-23T03:53:57.858Z,101364.03
2022-10-23T03:56:24.790Z,101353.56
2022-10-23T03:58:51.664Z,101346.84
2022-10-23T04:01:18.522Z,101343.19
2022-10-23T04:03:46.302Z,101349.31
2022-10-23T04:06:15.177Z,101339.59
2022-10-23T04:08:44.674Z,101343.13
2022-10-23T04:11:17.117Z,101338.66
2022-10-23T04:13:46.944Z,101345.66
2022-10-23T04:16:13.887Z,101326.88
2022-10-23T04:18:41.610Z,101340.94
2022-10-23T04:21:09.881Z,101328.41
2022-10-23T04:23:37.144Z,101328.69
2022-10-23T04:26:07.259Z,101316.63
2022-10-23T04:28:34.063Z,101301.25
2022-10-23T04:31:01.093Z,101333.34
2022-10-23T04:33:28.120Z,101320.91
2022-10-23T04:35:54.910Z,101305.22
2022-10-23T04:38:21.712Z,101317.50
2022-10-23T04:40:49.981Z,101314.06
2022-10-23T04:43:22.155Z,101287.19
2022-10-23T04:45:49.894Z,101296.19
2022-10-23T04:48:16.894Z,101294.28
2022-10-23T04:51:12.801Z,101290.34
2022-10-23T04:53:53.798Z,101285.22
2022-10-23T04:56:55.799Z,101282.38
2022-10-23T04:59:25.209Z,101287.69
2022-10-23T05:01:52.135Z,101281.44
2022-10-23T05:04:19.003Z,101276.84
2022-10-23T05:07:04.438Z,101273.44
2022-10-23T05:09:42.775Z,101273.69
2022-10-23T05:12:28.196Z,101266.56
2022-10-23T05:14:56.488Z,101267.50
2022-10-23T05:17:29.361Z,101257.25
2022-10-23T05:20:00.730Z,101250.63
2022-10-23T05:22:32.230Z,101260.13
2022-10-23T05:24:59.098Z,101251.28
2022-10-23T05:27:26.700Z,101251.84
2022-10-23T05:29:56.221Z,101237.22
2022-10-23T05:32:29.695Z,101253.25
2022-10-23T05:34:59.211Z,101247.72
2022-10-23T05:37:29.491Z,101237.28
2022-10-23T05:40:19.646Z,101229.75
2022-10-23T05:42:48.162Z,101223.84
2022-10-23T05:45:19.927Z,101222.91
2022-10-23T05:48:17.049Z,101243.06
2022-10-23T05:51:12.199Z,101247.53
2022-10-23T05:53:56.112Z,101237.94
2022-10-23T05:56:55.766Z,101233.56
2022-10-23T05:59:30.917Z,101247.31
2022-10-23T06:02:20.492Z,101242.66
2022-10-23T06:04:55.852Z,101242.84
2022-10-23T06:07:48.615Z,101242.94
2022-10-23T06:10:15.600Z,101222.69
2022-10-23T06:12:45.891Z,101227.09
2022-10-23T06:15:16.092Z,101225.59
2022-10-23T06:18:00.736Z,101223.69
2022-10-23T06:20:28.859Z,101221.13
2022-10-23T06:23:05.391Z,101216.22
2022-10-23T06:25:51.663Z,101224.94
2022-10-23T06:28:20.611Z,101221.13
2022-10-23T06:30:48.146Z,101208.22
2022-10-23T06:33:16.488Z,101230.41
2022-10-23T06:35:44.143Z,101225.81
2022-10-23T06:38:12.676Z,101222.22
2022-10-23T06:40:53.127Z,101215.16
2022-10-23T06:43:26.082Z,101206.22
2022-10-23T06:46:08.035Z,101205.28
2022-10-23T06:49:05.039Z,101220.19
2022-10-23T06:51:38.008Z,101204.19
2022-10-23T06:54:09.933Z,101204.72
2022-10-23T06:57:05.820Z,101207.72
2022-10-23T06:59:41.619Z,101208.34
2022-10-23T07:02:09.700Z,101209.00
2022-10-23T07:04:39.801Z,101203.44
2022-10-23T07:07:11.830Z,101198.56
2022-10-23T07:09:48.589Z,101184.06
2022-10-23T07:12:35.628Z,101193.56
2022-10-23T07:15:26.226Z,101195.38
2022-10-23T07:17:53.148Z,101188.09
2022-10-23T07:20:22.795Z,101191.63
2022-10-23T07:22:52.049Z,101191.28
2022-10-23T07:25:26.743Z,101190.09
2022-10-23T07:27:55.849Z,101189.38
2022-10-23T07:30:24.696Z,101180.38
2022-10-23T07:32:54.484Z,101178.25
2022-10-23T07:35:39.381Z,101191.88
2022-10-23T07:38:13.925Z,101169.09
2022-10-23T07:40:47.773Z,101184.19
2022-10-23T07:43:18.670Z,101172.97
2022-10-23T07:45:47.600Z,101183.88
2022-10-23T07:48:21.940Z,101180.84
2022-10-23T07:51:01.650Z,101169.22
2022-10-23T07:53:38.976Z,101163.28
2022-10-23T07:56:16.022Z,101138.50
2022-10-23T07:59:05.692Z,101169.78
2022-10-23T08:01:34.748Z,101129.59
2022-10-23T08:04:03.236Z,101164.63
2022-10-23T08:06:33.156Z,101170.34
2022-10-23T08:09:02.362Z,101147.75
2022-10-23T08:11:35.940Z,101159.22
2022-10-23T08:14:06.295Z,101158.41
2022-10-23T08:16:35.167Z,101152.47
2022-10-23T08:19:06.592Z,101140.09
2022-10-23T08:21:36.933Z,101143.53
2022-10-23T08:24:04.755Z,101150.34
2022-10-23T08:26:31.762Z,101149.13
2022-10-23T08:28:59.584Z,101141.13
2022-10-23T08:31:28.083Z,101143.31
2022-10-23T08:34:15.735Z,101146.00
2022-10-23T08:36:46.403Z,101138.75
2022-10-23T08:39:14.397Z,101134.88
2022-10-23T08:41:53.327Z,101125.78
2022-10-23T08:44:24.721Z,101134.66
2022-10-23T08:47:05.409Z,101123.09
2022-10-23T08:49:54.028Z,101118.72
2022-10-23T08:52:29.924Z,101118.25
2022-10-23T08:55:04.937Z,101119.09
2022-10-23T08:57:40.029Z,101054.94
2022-10-23T09:00:14.289Z,101114.25
2022-10-23T09:02:44.282Z,101114.75
2022-10-23T09:05:15.710Z,101109.09
2022-10-23T09:07:55.216Z,101107.66
2022-10-23T09:10:34.143Z,101100.59
2022-10-23T09:13:13.760Z,101100.31
2022-10-23T09:15:44.974Z,101095.06
2022-10-23T09:18:14.193Z,101083.50
2022-10-23T09:20:42.479Z,101081.16
2022-10-23T09:23:17.029Z,101081.59
2022-10-23T09:25:45.480Z,101078.44
2022-10-23T09:28:18.750Z,101066.91
2022-10-23T09:30:45.527Z,101063.97
2022-10-23T09:33:17.635Z,101057.63
2022-10-23T09:35:57.055Z,101065.03
2022-10-23T09:38:30.973Z,101063.03
2022-10-23T09:41:00.179Z,101061.44
2022-10-23T09:43:27.976Z,101038.91
2022-10-23T09:46:03.031Z,101048.88
2022-10-23T09:48:30.600Z,101044.69
2022-10-23T09:50:59.797Z,101032.84
2022-10-23T09:53:32.287Z,101046.47
2022-10-23T09:56:02.190Z,101040.50
2022-10-23T09:58:35.359Z,101030.22
2022-10-23T10:01:02.702Z,101037.81
2022-10-23T10:03:50.229Z,101027.53
2022-10-23T10:06:24.624Z,101034.97
2022-10-23T10:08:58.184Z,101034.44
2022-10-23T10:11:32.171Z,101033.56
2022-10-23T10:14:07.855Z,101014.34
2022-10-23T10:16:43.005Z,101030.78
2022-10-23T10:19:23.283Z,101018.19
2022-10-23T10:21:56.156Z,101006.31
2022-10-23T10:24:30.380Z,101011.66
2022-10-23T10:27:07.219Z,101013.38
2022-10-23T10:29:59.572Z,101000.66
2022-10-23T10:32:35.819Z,101004.19
2022-10-23T10:35:23.690Z,100998.16
2022-10-23T10:38:32.072Z,101001.88
2022-10-23T10:41:20.152Z,100989.59
2022-10-23T10:43:59.143Z,100980.69
2022-10-23T10:46:34.288Z,100963.34
2022-10-23T10:49:10.728Z,100965.63
2022-10-23T10:51:56.080Z,100945.00
2022-10-23T10:54:44.433Z,100943.47
2022-10-23T10:57:27.356Z,100979.22
2022-10-23T10:59:57.492Z,100907.41
2022-10-23T11:02:28.691Z,100916.63
2022-10-23T11:05:03.312Z,100948.00
2022-10-23T11:07:38.310Z,100957.59
2022-10-23T11:10:25.466Z,100918.59
2022-10-23T11:12:54.428Z,100952.06
2022-10-23T11:15:28.026Z,100904.69
2022-10-23T11:17:58.675Z,100911.34
2022-10-23T11:20:51.162Z,100911.50
2022-10-23T11:23:42.649Z,100881.66
2022-10-23T11:26:24.382Z,100863.59
2022-10-23T11:29:31.767Z,100844.03
2022-10-23T11:32:29.809Z,100821.34
2022-10-23T11:35:14.916Z,100839.75
2022-10-23T11:37:42.318Z,100858.75
2022-10-23T11:40:32.355Z,100835.47
2022-10-23T11:43:03.828Z,100836.94
2022-10-23T11:45:34.795Z,100839.34
2022-10-23T11:48:03.277Z,100776.94
2022-10-23T11:50:33.965Z,100801.25
2022-10-23T11:53:33.326Z,100814.00
2022-10-23T11:56:23.381Z,100772.81
2022-10-23T11:58:51.443Z,100810.22
2022-10-23T12:01:37.558Z,100803.28
2022-10-23T12:04:18.824Z,100798.78
2022-10-23T12:06:48.774Z,100792.00
2022-10-23T12:09:32.041Z,100788.63
2022-10-23T12:12:16.621Z,100787.75
2022-10-23T12:14:45.899Z,100784.81
2022-10-23T12:17:30.581Z,100776.34
2022-10-23T12:20:27.302Z,100758.97
2022-10-23T12:26:28.998Z,100756.44
2022-10-23T12:29:04.326Z,100737.25
2022-10-23T12:31:47.030Z,100745.16
2022-10-23T12:34:31.790Z,100734.44
2022-10-23T12:37:16.195Z,100721.63
2022-10-23T12:39:43.220Z,100715.81
2022-10-23T12:42:20.663Z,100724.72
2022-10-23T12:44:58.814Z,100708.06
2022-10-23T12:47:26.163Z,100705.94
2022-10-23T12:49:54.901Z,100703.13
2022-10-23T12:52:24.600Z,100708.19
2022-10-23T12:54:52.287Z,100709.63
2022-10-23T12:57:26.797Z,100697.63
2022-10-23T12:59:57.353Z,100691.53
2022-10-23T13:02:26.011Z,100671.66
2022-10-23T13:04:57.552Z,100681.94
2022-10-23T13:07:28.502Z,100673.75
2022-10-23T13:09:59.324Z,100656.31
2022-10-23T13:12:32.093Z,100666.56
2022-10-23T13:15:03.477Z,100654.97
2022-10-23T13:17:36.370Z,100665.00
2022-10-23T13:20:32.359Z,100648.81
2022-10-23T13:23:08.352Z,100658.22
2022-10-23T13:25:38.037Z,100641.63
2022-10-23T13:28:24.513Z,100643.03
2022-10-23T13:31:03.504Z,100643.91
2022-10-23T13:33:36.441Z,100632.50
2022-10-23T13:36:19.475Z,100596.81
2022-10-23T13:39:05.353Z,100595.38
2022-10-23T13:41:39.551Z,100617.19
2022-10-23T13:44:06.764Z,100615.09
2022-10-23T13:46:34.981Z,100612.84
2022-10-23T13:49:02.023Z,100589.59
2022-10-23T13:51:37.621Z,100607.75
2022-10-23T13:54:15.023Z,100596.72
2022-10-23T13:56:42.819Z,100576.13
2022-10-23T13:59:11.661Z,100572.13
2022-10-23T14:01:39.614Z,100564.38
2022-10-23T14:04:07.316Z,100573.41
2022-10-23T14:06:37.550Z,100568.72
2022-10-23T14:09:05.592Z,100559.41
2022-10-23T14:11:33.908Z,100558.28
2022-10-23T14:14:01.411Z,100558.28
2022-10-23T14:16:29.323Z,100556.03
2022-10-23T14:18:56.246Z,100567.56
2022-10-23T14:21:24.774Z,100567.28
2022-10-23T14:23:58.678Z,100555.41
2022-10-23T14:26:30.520Z,100554.81
2022-10-23T14:29:01.101Z,100554.78
2022-10-23T14:31:34.952Z,100549.53
2022-10-23T14:34:09.634Z,100554.16
2022-10-23T14:36:49.881Z,100527.28
2022-10-23T14:39:19.279Z,100548.94
2022-10-23T14:41:48.916Z,100541.44
2022-10-23T14:44:18.862Z,100510.06
2022-10-23T14:46:46.753Z,100546.25
2022-10-23T14:49:13.500Z,100536.13
2022-10-23T14:51:43.871Z,100535.78
2022-10-23T14:54:12.714Z,100523.91
2022-10-23T14:56:41.363Z,100533.78
2022-10-23T14:59:10.394Z,100534.81
2022-10-23T15:01:45.354Z,100530.75
2022-10-23T15:04:15.464Z,100538.53
2022-10-23T15:06:42.916Z,100511.06
2022-10-23T15:09:11.047Z,100532.03
2022-10-23T15:11:37.886Z,100489.66
2022-10-23T15:14:06.453Z,100505.16
2022-10-23T15:16:41.599Z,100525.88
2022-10-23T15:19:13.623Z,100500.00
2022-10-23T15:21:44.288Z,100484.19
2022-10-23T15:24:13.769Z,100508.13
2022-10-23T15:26:43.975Z,100503.31
2022-10-23T15:29:24.463Z,100475.19
2022-10-23T15:31:55.919Z,100493.47
2022-10-23T15:34:28.199Z,100456.34
2022-10-23T15:36:59.752Z,100485.91
2022-10-23T15:39:28.797Z,100495.06
2022-10-23T15:41:57.495Z,100472.50
2022-10-23T15:44:28.208Z,100485.34
2022-10-23T15:46:57.177Z,100472.72
2022-10-23T15:49:24.971Z,100446.84
2022-10-23T15:51:52.542Z,100492.13
2022-10-23T15:54:20.690Z,100475.47
2022-10-23T15:56:50.186Z,100462.13
2022-10-23T15:59:17.285Z,100462.13
2022-10-23T16:01:45.938Z,100429.50
2022-10-23T16:04:12.883Z,100452.97
2022-10-23T16:06:40.457Z,100449.91
2022-10-23T16:09:07.447Z,100451.06
2022-10-23T16:11:37.232Z,100443.16
2022-10-23T16:14:04.825Z,100441.59
2022-10-23T16:16:33.812Z,100449.66
2022-10-23T16:19:04.410Z,100446.13
2022-10-23T16:21:35.274Z,100444.19
2022-10-23T16:24:04.014Z,100408.41
2022-10-23T16:26:32.000Z,100434.75
2022-10-23T16:29:10.721Z,100435.72
2022-10-23T16:31:39.919Z,100430.09
2022-10-23T16:34:10.668Z,100425.16
2022-10-23T16:36:43.306Z,100434.63
2022-10-23T16:39:20.874Z,100428.31
2022-10-23T16:42:06.583Z,100444.19
2022-10-23T16:44:47.432Z,100400.41
2022-10-23T16:47:20.296Z,100427.75
2022-10-23T16:49:48.690Z,100417.31
2022-10-23T16:52:15.570Z,100416.63
2022-10-23T16:54:42.846Z,100399.16
2022-10-23T16:57:09.968Z,100406.59
2022-10-23T16:59:37.082Z,100391.25
2022-10-23T17:02:07.615Z,100387.59
2022-10-23T17:04:37.220Z,100349.19
2022-10-23T17:07:06.491Z,100406.31
2022-10-23T17:09:33.364Z,100368.69
2022-10-23T17:12:00.340Z,100393.50
2022-10-23T17:14:30.310Z,100398.00
2022-10-23T17:16:59.482Z,100374.03
2022-10-23T17:22:16.199Z,100378.69
2022-10-23T17:24:45.279Z,100379.56
2022-10-23T17:27:14.597Z,100382.34
2022-10-23T17:29:41.362Z,100371.25
2022-10-23T17:32:08.321Z,100352.66
2022-10-23T17:34:35.216Z,100387.72
2022-10-23T17:37:02.031Z,100349.00
2022-10-23T17:39:30.397Z,100390.78
2022-10-23T17:41:57.638Z,100381.78
2022-10-23T17:44:24.412Z,100369.19
2022-10-23T17:46:53.497Z,100356.06
2022-10-23T17:49:21.105Z,100360.56
2022-10-23T17:51:51.801Z,100381.09
2022-10-23T17:54:18.703Z,100383.06
2022-10-23T17:56:47.092Z,100388.84
2022-10-23T17:59:15.902Z,100384.63
2022-10-23T18:01:43.959Z,100387.44
2022-10-23T18:04:11.078Z,100368.41
2022-10-23T18:06:43.004Z,100368.25
2022-10-23T18:09:10.325Z,100361.38
2022-10-23T18:11:41.458Z,100350.94
2022-10-23T18:14:12.216Z,100355.72
2022-10-23T18:16:41.129Z,100349.22
2022-10-23T18:19:08.864Z,100353.13
2022-10-23T18:21:36.532Z,100343.38
2022-10-23T18:24:04.153Z,100336.59
2022-10-23T18:26:35.296Z,100342.81
2022-10-23T18:29:07.267Z,100335.69
2022-10-23T18:31:37.524Z,100346.00
2022-10-23T18:34:07.768Z,100331.56
2022-10-23T18:36:36.920Z,100345.84
2022-10-23T18:39:05.527Z,100333.44
2022-10-23T18:41:34.259Z,100317.41
2022-10-23T18:44:01.933Z,100326.47
2022-10-23T18:46:29.018Z,100319.66
2022-10-23T18:48:57.458Z,100319.19
2022-10-23T18:51:28.122Z,100320.59
2022-10-23T18:53:55.096Z,100330.72
2022-10-23T18:56:24.737Z,100321.53
2022-10-23T18:58:53.257Z,100316.69
2022-10-23T19:01:21.247Z,100315.38
2022-10-23T19:03:48.231Z,100315.13
2022-10-23T19:06:17.464Z,100307.41
2022-10-23T19:08:45.245Z,100284.19
2022-10-23T19:11:13.680Z,100309.00
2022-10-23T19:13:41.485Z,100306.09
2022-10-23T19:16:12.877Z,100314.69
2022-10-23T19:18:42.810Z,100332.13
2022-10-23T19:21:09.712Z,100334.28
2022-10-23T19:23:40.858Z,100351.75
2022-10-23T19:26:09.501Z,100359.06
2022-10-23T19:28:37.772Z,100358.38
2022-10-23T19:31:05.883Z,100392.56
2022-10-23T19:33:34.354Z,100397.38
2022-10-23T19:36:05.228Z,100423.34
2022-10-23T19:38:33.006Z,100405.28
2022-10-23T19:41:01.858Z,100425.25
2022-10-23T19:43:28.804Z,100441.34
2022-10-23T19:45:55.717Z,100436.59
2022-10-23T19:48:22.419Z,100423.97
2022-10-23T19:50:49.207Z,100434.13
2022-10-23T19:53:17.085Z,100412.28
2022-10-23T19:55:43.871Z,100450.16
2022-10-23T19:58:12.356Z,100453.38
2022-10-23T20:00:39.618Z,100447.72
2022-10-23T20:03:06.341Z,100433.78
2022-10-23T20:05:33.345Z,100417.53
2022-10-23T20:08:00.154Z,100388.75
2022-10-23T20:10:26.902Z,100372.34
2022-10-23T20:13:02.361Z,100329.84
2022-10-23T20:15:41.987Z,100304.53
2022-10-23T20:18:08.791Z,100347.09
2022-10-23T20:20:40.022Z,100341.97
2022-10-23T20:23:06.862Z,100364.13
2022-10-23T20:25:33.612Z,100375.84
2022-10-23T20:28:00.769Z,100386.84
2022-10-23T20:30:27.547Z,100354.00
2022-10-23T20:32:55.883Z,100397.06
2022-10-23T20:35:22.674Z,100384.00
2022-10-23T20:37:49.447Z,100386.44
2022-10-23T20:40:16.283Z,100391.09
2022-10-23T20:42:43.175Z,100385.78
2022-10-23T20:45:10.888Z,100373.97
2022-10-23T20:47:37.738Z,100386.91
2022-10-23T20:50:08.685Z,100379.03
2022-10-23T20:52:35.514Z,100401.84
2022-10-23T20:55:02.320Z,100406.94
2022-10-23T20:57:29.163Z,100407.47
2022-10-23T20:59:56.068Z,100410.72
2022-10-23T21:02:23.042Z,100365.81
2022-10-23T21:04:50.537Z,100403.41
2022-10-23T21:07:21.146Z,100417.06
2022-10-23T21:09:48.152Z,100369.75
2022-10-23T21:12:15.192Z,100411.72
2022-10-23T21:14:42.122Z,100402.97
2022-10-23T21:17:10.909Z,100408.59
2022-10-23T21:19:39.337Z,100404.97
2022-10-23T21:22:06.139Z,100399.72
2022-10-23T21:24:34.342Z,100395.41
2022-10-23T21:27:01.362Z,100398.34
2022-10-23T21:29:28.222Z,100351.19
2022-10-23T21:31:56.318Z,100359.91
2022-10-23T21:34:23.547Z,100399.59
2022-10-23T21:39:38.805Z,100403.53
2022-10-23T21:42:05.896Z,100411.53
2022-10-23T21:44:32.996Z,100405.50
2022-10-23T21:47:00.186Z,100398.44
2022-10-23T21:49:27.100Z,100401.38
2022-10-23T21:51:55.187Z,100395.03
2022-10-23T21:54:22.292Z,100367.13
2022-10-23T21:56:53.746Z,100389.66
2022-10-23T21:59:22.819Z,100388.97
2022-10-23T22:01:50.352Z,100383.00
2022-10-23T22:04:18.796Z,100368.78
2022-10-23T22:06:47.215Z,100373.00
2022-10-23T22:09:16.707Z,100363.59
2022-10-23T22:11:43.451Z,100372.47
2022-10-23T22:14:11.814Z,100337.25
2022-10-23T22:16:38.697Z,100378.63
2022-10-23T22:19:05.489Z,100369.06
2022-10-23T22:21:32.389Z,100378.97
2022-10-23T22:24:00.832Z,100365.28
2022-10-23T22:26:30.352Z,100379.16
2022-10-23T22:28:59.339Z,100370.84
2022-10-23T22:31:31.716Z,100372.41
2022-10-23T22:33:59.552Z,100370.31
2022-10-23T22:36:26.888Z,100363.03
2022-10-23T22:38:54.962Z,100375.94
2022-10-23T22:41:21.751Z,100333.03
2022-10-23T22:43:53.399Z,100361.03
2022-10-23T22:46:20.248Z,100366.53
2022-10-23T22:48:48.520Z,100373.72
2022-10-23T22:51:17.800Z,100368.22
2022-10-23T22:53:44.918Z,100366.53
2022-10-23T22:56:14.899Z,100366.09
2022-10-23T22:58:42.212Z,100349.78
2022-10-23T23:01:12.026Z,100368.38
2022-10-23T23:03:39.094Z,100368.66
2022-10-23T23:06:08.455Z,100366.09
2022-10-23T23:08:38.599Z,100369.63
2022-10-23T23:11:07.724Z,100371.44
2022-10-23T23:13:35.023Z,100346.41
2022-10-23T23:16:02.540Z,100364.13
2022-10-23T23:18:29.953Z,100358.34
2022-10-23T23:21:00.855Z,100342.00
2022-10-23T23:23:29.172Z,100361.44
2022-10-23T23:25:56.031Z,100350.03
2022-10-23T23:28:23.343Z,100365.50
2022-10-23T23:30:50.179Z,100326.41
2022-10-23T23:33:19.567Z,100358.03
2022-10-23T23:35:48.122Z,100342.16
2022-10-23T23:38:14.983Z,100345.25
2022-10-23T23:40:50.016Z,100344.94
2022-10-23T23:43:16.945Z,100344.34
2022-10-23T23:45:43.723Z,100352.66
2022-10-23T23:48:10.646Z,100341.13
2022-10-23T23:50:37.879Z,100346.38
2022-10-23T23:53:04.805Z,100335.81
2022-10-23T23:55:31.641Z,100340.19
2022-10-23T23:58:00.065Z,100343.28
